createdAt,value
2023-04-24T00:01:08.763Z,82.19
2023-04-24T00:03:36.094Z,81.80
2023-04-24T00:06:03.815Z,82.03
2023-04-24T00:08:30.707Z,82.51
2023-04-24T00:10:58.198Z,81.27
2023-04-24T00:13:25.259Z,80.76
2023-04-24T00:15:51.976Z,80.90
2023-04-24T00:18:18.648Z,80.83
2023-04-24T00:20:45.689Z,80.55
2023-04-24T00:23:12.361Z,80.41
2023-04-24T00:25:39.227Z,80.91
2023-04-24T00:28:05.857Z,81.95
2023-04-24T00:30:32.585Z,82.81
2023-04-24T00:32:59.450Z,82.45
2023-04-24T00:35:26.272Z,81.65
2023-04-24T00:37:52.830Z,82.98
2023-04-24T00:40:19.528Z,80.51
2023-04-24T00:42:46.622Z,80.35
2023-04-24T00:45:13.964Z,81.02
2023-04-24T00:47:41.515Z,79.85
2023-04-24T00:50:08.981Z,80.24
2023-04-24T00:52:35.772Z,80.22
2023-04-24T00:55:02.470Z,80.19
2023-04-24T00:57:29.518Z,81.42
2023-04-24T00:59:56.220Z,80.20
2023-04-24T01:02:24.225Z,79.50
2023-04-24T01:04:52.132Z,81.68
2023-04-24T01:07:22.640Z,80.82
2023-04-24T01:09:52.325Z,80.81
2023-04-24T01:12:20.015Z,81.21
2023-04-24T01:14:46.981Z,81.05
2023-04-24T01:17:13.832Z,82.33
2023-04-24T01:19:41.431Z,81.01
2023-04-24T01:22:13.893Z,80.95
2023-04-24T01:24:40.557Z,82.28
2023-04-24T01:27:07.729Z,82.34
2023-04-24T01:29:35.475Z,83.16
2023-04-24T01:32:02.208Z,82.16
2023-04-24T01:34:28.948Z,81.32
2023-04-24T01:36:55.709Z,80.44
2023-04-24T01:39:24.236Z,79.75
2023-04-24T01:41:51.497Z,79.27
2023-04-24T01:44:18.654Z,78.89
2023-04-24T01:46:45.821Z,80.44
2023-04-24T01:49:12.595Z,82.81
2023-04-24T01:51:39.502Z,82.56
2023-04-24T01:54:06.828Z,83.92
2023-04-24T01:56:36.770Z,85.70
2023-04-24T01:59:04.812Z,85.63
2023-04-24T02:01:37.226Z,85.64
2023-04-24T02:04:04.736Z,85.42
2023-04-24T02:06:32.525Z,83.84
2023-04-24T02:09:02.774Z,83.70
2023-04-24T02:11:29.323Z,83.65
2023-04-24T02:13:55.963Z,83.05
2023-04-24T02:16:22.747Z,84.26
2023-04-24T02:18:49.487Z,84.99
2023-04-24T02:21:16.089Z,85.33
2023-04-24T02:23:42.657Z,85.24
2023-04-24T02:26:09.487Z,84.00
2023-04-24T02:28:36.041Z,84.49
2023-04-24T02:31:02.674Z,84.06
2023-04-24T02:33:29.277Z,84.24
2023-04-24T02:35:55.936Z,86.32
2023-04-24T02:38:22.558Z,86.53
2023-04-24T02:40:49.165Z,86.78
2023-04-24T02:43:15.811Z,86.64
2023-04-24T02:45:42.514Z,88.16
2023-04-24T02:48:09.272Z,88.44
2023-04-24T02:50:37.998Z,87.36
2023-04-24T02:53:04.677Z,87.75
2023-04-24T02:55:31.355Z,87.97
2023-04-24T02:57:57.933Z,87.16
2023-04-24T03:00:24.718Z,86.93
2023-04-24T03:02:51.767Z,86.69
2023-04-24T03:05:18.607Z,85.48
2023-04-24T03:07:46.547Z,86.01
2023-04-24T03:10:13.265Z,87.77
2023-04-24T03:12:39.923Z,88.36
2023-04-24T03:15:07.134Z,88.26
2023-04-24T03:17:33.947Z,88.57
2023-04-24T03:20:00.557Z,89.17
2023-04-24T03:22:27.113Z,89.68
2023-04-24T03:24:53.716Z,89.20
2023-04-24T03:27:20.346Z,89.52
2023-04-24T03:29:46.931Z,90.74
2023-04-24T03:32:13.460Z,91.96
2023-04-24T03:34:40.017Z,91.43
2023-04-24T03:37:06.538Z,90.33
2023-04-24T03:39:33.079Z,90.84
2023-04-24T03:41:59.623Z,91.00
2023-04-24T03:44:26.264Z,91.31
2023-04-24T03:46:52.815Z,91.52
2023-04-24T03:49:19.389Z,91.43
2023-04-24T03:51:46.241Z,91.59
2023-04-24T03:54:12.818Z,92.30
2023-04-24T03:56:41.490Z,92.04
2023-04-24T03:59:08.139Z,91.63
2023-04-24T04:01:37.786Z,91.30
2023-04-24T04:04:05.148Z,90.74
2023-04-24T04:06:31.975Z,90.84
2023-04-24T04:08:59.156Z,90.75
2023-04-24T04:11:26.439Z,90.51
2023-04-24T04:13:53.175Z,89.75
2023-04-24T04:16:19.866Z,89.47
2023-04-24T04:18:46.791Z,89.45
2023-04-24T04:21:13.437Z,89.02
2023-04-24T04:23:41.315Z,89.00
2023-04-24T04:26:08.976Z,89.96
2023-04-24T04:28:35.857Z,90.43
2023-04-24T04:31:02.390Z,89.68
2023-04-24T04:33:28.965Z,89.22
2023-04-24T04:35:57.715Z,88.94
2023-04-24T04:38:24.420Z,88.36
2023-04-24T04:40:51.106Z,87.77
2023-04-24T04:43:17.699Z,88.56
2023-04-24T04:45:44.474Z,88.78
2023-04-24T04:48:13.822Z,88.50
2023-04-24T04:50:40.559Z,88.73
2023-04-24T04:53:07.989Z,87.94
2023-04-24T04:55:34.606Z,85.88
2023-04-24T04:58:01.963Z,85.09
2023-04-24T05:00:29.985Z,86.11
2023-04-24T05:03:05.966Z,86.70
2023-04-24T05:05:41.625Z,86.79
2023-04-24T05:08:19.753Z,86.14
2023-04-24T05:10:52.759Z,84.94
2023-04-24T05:13:28.276Z,85.55
2023-04-24T05:15:58.888Z,85.18
2023-04-24T05:18:25.671Z,85.04
2023-04-24T05:20:52.315Z,83.95
2023-04-24T05:23:18.852Z,84.18
2023-04-24T05:25:45.777Z,83.36
2023-04-24T05:28:12.334Z,81.55
2023-04-24T05:30:38.941Z,81.69
2023-04-24T05:33:05.577Z,81.78
2023-04-24T05:35:32.242Z,81.55
2023-04-24T05:37:58.912Z,81.77
2023-04-24T05:40:25.450Z,81.99
2023-04-24T05:42:51.998Z,83.72
2023-04-24T05:45:18.661Z,84.18
2023-04-24T05:47:46.013Z,82.40
2023-04-24T05:50:13.219Z,82.52
2023-04-24T05:52:39.806Z,82.72
2023-04-24T05:55:06.698Z,82.40
2023-04-24T05:57:33.305Z,82.48
2023-04-24T05:59:59.908Z,79.27
2023-04-24T06:02:27.104Z,79.74
2023-04-24T06:04:54.171Z,79.69
2023-04-24T06:07:21.376Z,79.42
2023-04-24T06:09:48.991Z,78.42
2023-04-24T06:12:15.674Z,77.48
2023-04-24T06:14:42.288Z,75.95
2023-04-24T06:17:08.862Z,75.99
2023-04-24T06:19:35.535Z,76.24
2023-04-24T06:22:02.128Z,75.55
2023-04-24T06:24:29.479Z,74.92
2023-04-24T06:26:57.724Z,75.61
2023-04-24T06:29:24.329Z,75.46
2023-04-24T06:31:51.100Z,77.07
2023-04-24T06:34:17.689Z,79.05
2023-04-24T06:36:44.381Z,81.41
2023-04-24T06:39:11.242Z,80.82
2023-04-24T06:41:37.782Z,80.97
2023-04-24T06:44:04.360Z,80.04
2023-04-24T06:46:31.010Z,80.81
2023-04-24T06:48:57.741Z,78.46
2023-04-24T06:51:25.086Z,77.76
2023-04-24T06:53:52.872Z,77.85
2023-04-24T06:56:19.436Z,78.81
2023-04-24T06:58:46.336Z,79.22
2023-04-24T07:01:13.376Z,77.50
2023-04-24T07:03:40.160Z,77.08
2023-04-24T07:06:07.583Z,75.37
2023-04-24T07:08:34.231Z,75.55
2023-04-24T07:11:01.504Z,76.57
2023-04-24T07:13:28.095Z,76.30
2023-04-24T07:15:56.227Z,76.00
2023-04-24T07:18:23.728Z,76.17
2023-04-24T07:20:53.383Z,76.52
2023-04-24T07:23:21.081Z,75.25
2023-04-24T07:25:47.990Z,76.28
2023-04-24T07:28:14.576Z,75.30
2023-04-24T07:30:41.274Z,77.01
2023-04-24T07:33:08.046Z,77.46
2023-04-24T07:35:45.150Z,75.51
2023-04-24T07:38:12.423Z,75.23
2023-04-24T07:40:39.045Z,75.02
2023-04-24T07:43:05.833Z,74.31
2023-04-24T07:45:34.693Z,73.88
2023-04-24T07:48:01.317Z,74.53
2023-04-24T07:50:27.953Z,74.47
2023-04-24T07:52:54.500Z,74.03
2023-04-24T07:55:24.195Z,73.54
2023-04-24T07:57:52.558Z,74.08
2023-04-24T08:00:20.852Z,73.90
2023-04-24T08:02:47.549Z,73.59
2023-04-24T08:05:14.542Z,71.83
2023-04-24T08:07:43.356Z,73.31
2023-04-24T08:10:11.849Z,71.03
2023-04-24T08:12:38.918Z,70.92
2023-04-24T08:15:06.839Z,71.24
2023-04-24T08:17:34.666Z,72.04
2023-04-24T08:20:02.310Z,70.89
2023-04-24T08:22:29.526Z,71.54
2023-04-24T08:24:57.968Z,69.94
2023-04-24T08:27:24.965Z,69.08
2023-04-24T08:29:51.657Z,70.30
2023-04-24T08:32:36.688Z,70.34
2023-04-24T08:35:03.617Z,69.69
2023-04-24T08:37:30.404Z,70.38
2023-04-24T08:39:57.761Z,69.34
2023-04-24T08:42:25.262Z,69.60
2023-04-24T08:44:51.888Z,69.06
2023-04-24T08:47:20.425Z,67.23
2023-04-24T08:49:49.162Z,68.15
2023-04-24T08:52:16.870Z,63.58
2023-04-24T08:54:46.478Z,63.43
2023-04-24T08:57:15.889Z,64.68
2023-04-24T08:59:44.363Z,63.70
2023-04-24T09:02:12.918Z,64.55
2023-04-24T09:04:42.062Z,64.08
2023-04-24T09:07:11.505Z,61.63
2023-04-24T09:09:39.946Z,62.96
2023-04-24T09:12:07.058Z,61.93
2023-04-24T09:14:34.114Z,61.58
2023-04-24T09:17:00.869Z,60.80
2023-04-24T09:19:27.490Z,58.88
2023-04-24T09:21:54.079Z,58.18
2023-04-24T09:24:23.779Z,57.60
2023-04-24T09:27:02.627Z,56.95
2023-04-24T09:29:29.609Z,56.42
2023-04-24T09:31:56.546Z,56.57
2023-04-24T09:34:24.939Z,55.25
2023-04-24T09:36:52.154Z,54.76
2023-04-24T09:39:21.268Z,56.23
2023-04-24T09:41:50.232Z,55.97
2023-04-24T09:44:24.419Z,55.82
2023-04-24T09:46:57.659Z,55.44
2023-04-24T09:49:25.650Z,54.67
2023-04-24T09:51:52.427Z,54.73
2023-04-24T09:54:23.612Z,54.48
2023-04-24T09:56:52.539Z,51.11
2023-04-24T09:59:20.802Z,51.78
2023-04-24T10:01:49.674Z,52.37
2023-04-24T10:04:19.156Z,53.49
2023-04-24T10:06:45.864Z,53.38
2023-04-24T10:09:14.741Z,53.20
2023-04-24T10:11:45.141Z,53.50
2023-04-24T10:14:14.845Z,53.79
2023-04-24T10:16:42.138Z,51.50
2023-04-24T10:19:09.382Z,52.70
2023-04-24T10:21:38.712Z,52.54
2023-04-24T10:24:08.506Z,53.19
2023-04-24T10:26:35.896Z,51.71
2023-04-24T10:29:02.707Z,52.43
2023-04-24T10:31:33.834Z,53.18
2023-04-24T10:34:02.166Z,53.24
2023-04-24T10:36:33.379Z,52.16
2023-04-24T10:39:02.452Z,53.26
2023-04-24T10:41:31.801Z,53.38
2023-04-24T10:44:15.972Z,54.40
2023-04-24T10:46:50.657Z,53.78
2023-04-24T10:49:17.424Z,50.86
2023-04-24T10:51:49.658Z,49.89
2023-04-24T10:54:26.902Z,51.15
2023-04-24T10:56:54.000Z,50.94
2023-04-24T10:59:28.757Z,51.76
2023-04-24T11:01:56.447Z,51.71
2023-04-24T11:04:33.905Z,51.56
2023-04-24T11:07:00.999Z,51.82
2023-04-24T11:09:29.605Z,51.35
2023-04-24T11:12:11.973Z,51.11
2023-04-24T11:14:57.073Z,53.32
2023-04-24T11:17:38.406Z,50.86
2023-04-24T11:20:26.767Z,50.85
2023-04-24T11:22:56.419Z,50.44
2023-04-24T11:25:23.964Z,50.92
2023-04-24T11:27:51.397Z,51.64
2023-04-24T11:30:19.851Z,51.18
2023-04-24T11:32:51.271Z,52.61
2023-04-24T11:35:25.788Z,50.40
2023-04-24T11:38:18.687Z,51.20
2023-04-24T11:40:41.213Z,51.17
2023-04-24T11:43:08.295Z,51.07
2023-04-24T11:45:35.418Z,49.72
2023-04-24T11:48:04.645Z,50.62
2023-04-24T11:50:31.713Z,48.16
2023-04-24T11:52:58.713Z,48.48
2023-04-24T11:55:28.062Z,47.33
2023-04-24T11:58:00.415Z,46.01
2023-04-24T12:00:32.455Z,46.81
2023-04-24T12:03:12.593Z,45.71
2023-04-24T12:05:40.689Z,45.92
2023-04-24T12:08:07.433Z,44.58
2023-04-24T12:10:35.647Z,45.90
2023-04-24T12:13:02.391Z,46.85
2023-04-24T12:15:29.737Z,48.38
2023-04-24T12:17:57.285Z,48.96
2023-04-24T12:20:29.699Z,47.60
2023-04-24T12:22:58.506Z,46.43
2023-04-24T12:25:30.092Z,46.87
2023-04-24T12:28:16.922Z,47.03
2023-04-24T12:30:45.789Z,47.46
2023-04-24T12:33:12.869Z,46.71
2023-04-24T12:35:42.114Z,46.86
2023-04-24T12:38:16.612Z,47.74
2023-04-24T12:40:43.937Z,48.00
2023-04-24T12:43:20.385Z,48.00
2023-04-24T12:45:49.949Z,49.05
2023-04-24T12:48:16.872Z,48.99
2023-04-24T12:50:46.390Z,49.75
2023-04-24T12:53:13.996Z,51.61
2023-04-24T12:55:41.180Z,52.80
2023-04-24T12:58:07.771Z,52.65
2023-04-24T13:00:34.622Z,53.15
2023-04-24T13:03:02.212Z,55.38
2023-04-24T13:05:29.136Z,55.93
2023-04-24T13:07:55.819Z,55.00
2023-04-24T13:10:22.505Z,55.92
2023-04-24T13:12:49.077Z,57.15
2023-04-24T13:15:15.710Z,58.14
2023-04-24T13:17:42.312Z,59.67
2023-04-24T13:20:09.117Z,59.71
2023-04-24T13:22:37.271Z,60.52
2023-04-24T13:25:04.682Z,60.67
2023-04-24T13:27:31.611Z,61.46
2023-04-24T13:29:58.233Z,62.09
2023-04-24T13:32:24.879Z,63.22
2023-04-24T13:34:51.493Z,62.87
2023-04-24T13:37:18.074Z,64.17
2023-04-24T13:39:44.658Z,65.22
2023-04-24T13:42:11.789Z,66.11
2023-04-24T13:44:38.677Z,66.63
2023-04-24T13:47:05.343Z,67.33
2023-04-24T13:49:31.929Z,68.30
2023-04-24T13:51:58.557Z,68.78
2023-04-24T13:54:26.896Z,69.43
2023-04-24T13:56:53.998Z,69.69
2023-04-24T13:59:23.599Z,71.12
2023-04-24T14:01:50.547Z,75.03
2023-04-24T14:04:17.467Z,77.36
2023-04-24T14:06:45.463Z,76.96
2023-04-24T14:09:13.887Z,82.05
2023-04-24T14:11:40.635Z,83.72
2023-04-24T14:14:07.460Z,82.84
2023-04-24T14:16:34.256Z,81.25
2023-04-24T14:19:00.903Z,83.12
2023-04-24T14:21:27.507Z,84.91
2023-04-24T14:23:54.097Z,86.95
2023-04-24T14:26:20.983Z,86.79
2023-04-24T14:28:47.582Z,87.48
2023-04-24T14:31:14.336Z,86.50
2023-04-24T14:33:40.996Z,90.04
2023-04-24T14:36:07.695Z,89.74
2023-04-24T14:38:35.068Z,84.54
2023-04-24T14:43:31.923Z,78.42
2023-04-24T14:45:58.592Z,80.87
2023-04-24T14:48:25.782Z,79.35
2023-04-24T14:50:52.535Z,80.47
2023-04-24T14:53:19.748Z,81.24
2023-04-24T14:55:46.386Z,82.78
2023-04-24T14:58:13.140Z,81.99
2023-04-24T15:00:39.896Z,82.99
2023-04-24T15:03:06.919Z,84.17
2023-04-24T15:05:33.898Z,85.25
2023-04-24T15:08:00.836Z,80.69
2023-04-24T15:10:27.426Z,82.45
2023-04-24T15:12:54.061Z,79.81
2023-04-24T15:15:20.778Z,79.91
2023-04-24T15:17:47.419Z,78.22
2023-04-24T15:20:14.177Z,79.33
2023-04-24T15:22:40.843Z,79.29
2023-04-24T15:25:08.017Z,80.34
2023-04-24T15:27:44.600Z,81.17
2023-04-24T15:30:12.446Z,80.31
2023-04-24T15:32:39.941Z,81.58
2023-04-24T15:35:08.962Z,81.83
2023-04-24T15:37:37.286Z,81.60
2023-04-24T15:40:06.567Z,82.57
2023-04-24T15:42:33.738Z,81.92
2023-04-24T15:45:00.411Z,82.41
2023-04-24T15:47:27.136Z,83.40
2023-04-24T15:49:54.336Z,83.29
2023-04-24T15:52:39.622Z,85.08
2023-04-24T15:55:06.610Z,84.81
2023-04-24T15:57:33.258Z,84.65
2023-04-24T16:00:00.409Z,85.23
2023-04-24T16:02:27.526Z,87.02
2023-04-24T16:04:54.919Z,86.60
2023-04-24T16:07:21.691Z,86.05
2023-04-24T16:09:48.846Z,83.85
2023-04-24T16:12:15.937Z,82.72
2023-04-24T16:14:42.501Z,85.23
2023-04-24T16:17:09.359Z,86.38
2023-04-24T16:19:36.069Z,87.59
2023-04-24T16:22:03.381Z,86.38
2023-04-24T16:24:30.545Z,87.40
2023-04-24T16:26:57.717Z,86.95
2023-04-24T16:29:24.591Z,86.81
2023-04-24T16:31:51.485Z,87.28
2023-04-24T16:34:18.118Z,87.02
2023-04-24T16:36:44.731Z,86.53
2023-04-24T16:39:11.310Z,87.30
2023-04-24T16:41:37.947Z,86.55
2023-04-24T16:44:04.553Z,87.02
2023-04-24T16:46:31.265Z,86.92
2023-04-24T16:48:58.364Z,87.39
2023-04-24T16:51:24.920Z,86.40
2023-04-24T16:53:51.533Z,86.13
2023-04-24T16:56:18.125Z,86.83
2023-04-24T16:58:44.777Z,86.98
2023-04-24T17:01:11.438Z,86.58
2023-04-24T17:03:38.423Z,86.48
2023-04-24T17:06:05.539Z,86.50
2023-04-24T17:08:32.872Z,87.96
2023-04-24T17:10:59.464Z,86.79
2023-04-24T17:13:26.176Z,86.92
2023-04-24T17:15:52.760Z,87.43
2023-04-24T17:18:19.761Z,88.19
2023-04-24T17:20:46.376Z,88.71
2023-04-24T17:23:13.714Z,88.45
2023-04-24T17:25:40.549Z,89.30
2023-04-24T17:28:23.869Z,89.94
2023-04-24T17:30:50.570Z,90.62
2023-04-24T17:33:17.143Z,90.58
2023-04-24T17:35:43.774Z,89.31
2023-04-24T17:38:10.806Z,88.99
2023-04-24T17:40:38.498Z,88.77
2023-04-24T17:43:05.399Z,90.86
2023-04-24T17:45:32.241Z,90.33
2023-04-24T17:47:58.960Z,89.26
2023-04-24T17:50:25.848Z,90.10
2023-04-24T17:52:52.429Z,90.26
2023-04-24T17:55:19.002Z,91.56
2023-04-24T17:57:45.755Z,91.77
2023-04-24T18:00:13.262Z,92.33
2023-04-24T18:02:39.951Z,92.22
2023-04-24T18:05:06.908Z,94.11
2023-04-24T18:07:34.094Z,93.69
2023-04-24T18:10:00.837Z,93.65
2023-04-24T18:12:27.620Z,95.46
2023-04-24T18:15:02.996Z,94.80
2023-04-24T18:17:40.162Z,94.98
2023-04-24T18:20:07.385Z,95.21
2023-04-24T18:22:34.015Z,95.50
2023-04-24T18:25:01.311Z,96.50
2023-04-24T18:27:31.082Z,96.98
2023-04-24T18:29:58.642Z,97.09
2023-04-24T18:32:26.252Z,96.83
2023-04-24T18:34:53.151Z,96.35
2023-04-24T18:37:19.733Z,96.93
2023-04-24T18:39:46.315Z,97.46
2023-04-24T18:42:12.966Z,98.01
2023-04-24T18:44:41.272Z,97.46
2023-04-24T18:47:08.415Z,95.58
2023-04-24T18:49:35.249Z,94.74
2023-04-24T18:52:01.974Z,94.58
2023-04-24T18:54:29.012Z,93.92
2023-04-24T18:56:56.858Z,94.58
2023-04-24T18:59:23.434Z,93.61
2023-04-24T19:01:50.307Z,93.21
2023-04-24T19:04:18.115Z,92.62
2023-04-24T19:06:44.764Z,91.08
2023-04-24T19:09:11.369Z,93.48
2023-04-24T19:11:37.983Z,93.11
2023-04-24T19:14:05.737Z,93.45
2023-04-24T19:16:32.381Z,92.23
2023-04-24T19:18:59.083Z,91.65
2023-04-24T19:21:26.251Z,90.29
2023-04-24T19:23:53.109Z,90.59
2023-04-24T19:26:19.728Z,91.57
2023-04-24T19:28:47.627Z,93.67
2023-04-24T19:31:14.275Z,91.09
2023-04-24T19:33:40.914Z,91.08
2023-04-24T19:36:07.723Z,90.95
2023-04-24T19:38:34.536Z,91.31
2023-04-24T19:41:01.138Z,94.27
2023-04-24T19:43:27.650Z,92.82
2023-04-24T19:45:54.233Z,92.35
2023-04-24T19:48:20.936Z,92.13
2023-04-24T19:50:47.574Z,91.66
2023-04-24T19:53:14.722Z,91.02
2023-04-24T19:55:41.387Z,90.85
2023-04-24T19:58:08.326Z,92.14
2023-04-24T20:00:35.154Z,92.44
2023-04-24T20:03:03.009Z,91.83
2023-04-24T20:05:29.802Z,91.38
2023-04-24T20:07:56.482Z,91.43
2023-04-24T20:10:23.173Z,91.74
2023-04-24T20:12:49.802Z,91.84
2023-04-24T20:15:16.596Z,91.45
2023-04-24T20:17:43.159Z,90.78
2023-04-24T20:20:10.580Z,90.90
2023-04-24T20:22:40.085Z,90.88
2023-04-24T20:25:11.574Z,90.14
2023-04-24T20:27:38.230Z,90.12
2023-04-24T20:30:05.258Z,90.92
2023-04-24T20:32:33.098Z,90.36
2023-04-24T20:34:59.742Z,90.08
2023-04-24T20:37:26.276Z,90.58
2023-04-24T20:39:52.815Z,90.88
2023-04-24T20:42:19.632Z,91.57
2023-04-24T20:44:46.243Z,90.95
2023-04-24T20:47:12.911Z,90.53
2023-04-24T20:49:39.591Z,90.43
2023-04-24T20:52:06.550Z,91.50
2023-04-24T20:54:35.225Z,94.02
2023-04-24T20:57:01.976Z,92.58
2023-04-24T20:59:28.696Z,92.42
2023-04-24T21:01:55.410Z,92.31
2023-04-24T21:04:22.036Z,92.08
2023-04-24T21:06:48.600Z,91.77
2023-04-24T21:09:15.233Z,92.41
2023-04-24T21:11:42.166Z,92.93
2023-04-24T21:14:08.849Z,92.83
2023-04-24T21:16:37.190Z,92.55
2023-04-24T21:19:04.376Z,92.24
2023-04-24T21:21:30.982Z,94.25
2023-04-24T21:23:57.557Z,96.34
2023-04-24T21:26:24.148Z,93.10
2023-04-24T21:28:51.723Z,92.70
2023-04-24T21:31:18.276Z,92.58
2023-04-24T21:33:44.844Z,92.28
2023-04-24T21:36:11.411Z,91.71
2023-04-24T21:38:39.902Z,91.83
2023-04-24T21:41:06.466Z,93.04
2023-04-24T21:43:44.023Z,91.53
2023-04-24T21:46:11.507Z,90.10
2023-04-24T21:48:38.166Z,89.33
2023-04-24T21:51:04.766Z,88.93
2023-04-24T21:53:31.320Z,88.92
2023-04-24T21:55:58.024Z,87.33
2023-04-24T21:58:24.869Z,86.47
2023-04-24T22:00:51.461Z,85.88
2023-04-24T22:03:18.209Z,85.86
2023-04-24T22:05:45.002Z,86.05
2023-04-24T22:08:11.672Z,83.68
2023-04-24T22:10:38.272Z,84.32
2023-04-24T22:13:04.880Z,83.69
2023-04-24T22:15:31.650Z,84.79
2023-04-24T22:17:58.911Z,84.52
2023-04-24T22:20:25.934Z,84.28
2023-04-24T22:22:52.682Z,85.32
2023-04-24T22:25:19.348Z,84.89
2023-04-24T22:27:45.942Z,85.10
2023-04-24T22:30:12.889Z,84.96
2023-04-24T22:32:39.627Z,85.29
2023-04-24T22:35:07.175Z,86.10
2023-04-24T22:37:33.844Z,85.22
2023-04-24T22:40:01.789Z,85.56
2023-04-24T22:42:29.469Z,87.09
2023-04-24T22:44:56.222Z,86.33
2023-04-24T22:47:22.940Z,86.20
2023-04-24T22:49:49.569Z,86.26
2023-04-24T22:52:17.182Z,86.61
2023-04-24T22:54:43.973Z,86.68
2023-04-24T22:57:12.385Z,87.27
2023-04-24T22:59:39.281Z,87.49
2023-04-24T23:02:05.951Z,88.49
2023-04-24T23:04:32.722Z,89.34
2023-04-24T23:06:59.334Z,89.94
2023-04-24T23:09:25.913Z,89.62
2023-04-24T23:11:52.834Z,89.53
2023-04-24T23:14:19.443Z,89.79
2023-04-24T23:16:46.500Z,90.00
2023-04-24T23:19:13.293Z,91.05
2023-04-24T23:21:39.904Z,91.35
2023-04-24T23:24:06.570Z,91.82
2023-04-24T23:26:33.233Z,90.34
2023-04-24T23:29:00.073Z,90.64
2023-04-24T23:31:26.715Z,89.82
2023-04-24T23:33:53.293Z,92.07
2023-04-24T23:36:19.865Z,92.43
2023-04-24T23:38:50.276Z,91.66
2023-04-24T23:41:18.130Z,91.22
2023-04-24T23:43:44.691Z,90.77
2023-04-24T23:46:11.505Z,90.63
2023-04-24T23:48:38.106Z,90.06
2023-04-24T23:51:04.915Z,90.04
2023-04-24T23:53:31.686Z,89.84
2023-04-24T23:55:58.283Z,88.65
2023-04-24T23:58:24.836Z,86.33
